sensor_id;sensor_type;location;lat;lon;timestamp;temperature;humidity
28087;DHT22;15392;48.912;8.380;2022-11-04T00:01:50;16.40;58.30
28087;DHT22;15392;48.912;8.380;2022-11-04T00:04:18;16.40;58.20
28087;DHT22;15392;48.912;8.380;2022-11-04T00:06:45;16.40;58.20
28087;DHT22;15392;48.912;8.380;2022-11-04T00:09:15;16.40;58.30
28087;DHT22;15392;48.912;8.380;2022-11-04T00:11:48;16.40;58.30
28087;DHT22;15392;48.912;8.380;2022-11-04T00:14:34;16.40;58.20
28087;DHT22;15392;48.912;8.380;2022-11-04T00:17:01;16.40;58.20
28087;DHT22;15392;48.912;8.380;2022-11-04T00:19:51;16.40;58.20
28087;DHT22;15392;48.912;8.380;2022-11-04T00:22:37;16.40;58.00
28087;DHT22;15392;48.912;8.380;2022-11-04T00:25:23;16.40;58.00
28087;DHT22;15392;48.912;8.380;2022-11-04T00:31:00;16.40;58.00
28087;DHT22;15392;48.912;8.380;2022-11-04T00:33:46;16.40;57.90
28087;DHT22;15392;48.912;8.380;2022-11-04T00:36:13;16.30;57.90
28087;DHT22;15392;48.912;8.380;2022-11-04T00:38:39;16.30;57.90
28087;DHT22;15392;48.912;8.380;2022-11-04T00:41:05;16.30;57.90
28087;DHT22;15392;48.912;8.380;2022-11-04T00:43:51;16.30;57.80
28087;DHT22;15392;48.912;8.380;2022-11-04T00:46:20;16.30;57.90
28087;DHT22;15392;48.912;8.380;2022-11-04T00:48:46;16.30;58.50
28087;DHT22;15392;48.912;8.380;2022-11-04T00:51:13;16.30;57.70
28087;DHT22;15392;48.912;8.380;2022-11-04T00:53:39;16.30;57.70
28087;DHT22;15392;48.912;8.380;2022-11-04T00:56:05;16.30;57.80
28087;DHT22;15392;48.912;8.380;2022-11-04T00:58:31;16.30;57.70
28087;DHT22;15392;48.912;8.380;2022-11-04T01:00:56;16.30;57.70
28087;DHT22;15392;48.912;8.380;2022-11-04T01:03:22;16.30;57.80
28087;DHT22;15392;48.912;8.380;2022-11-04T01:05:48;16.30;57.80
28087;DHT22;15392;48.912;8.380;2022-11-04T01:08:14;16.30;57.80
28087;DHT22;15392;48.912;8.380;2022-11-04T01:10:40;16.30;57.80
28087;DHT22;15392;48.912;8.380;2022-11-04T01:13:12;16.30;57.80
28087;DHT22;15392;48.912;8.380;2022-11-04T01:15:39;16.20;57.80
28087;DHT22;15392;48.912;8.380;2022-11-04T01:18:05;16.20;57.70
28087;DHT22;15392;48.912;8.380;2022-11-04T01:20:31;16.20;57.70
28087;DHT22;15392;48.912;8.380;2022-11-04T01:22:58;16.20;57.60
28087;DHT22;15392;48.912;8.380;2022-11-04T01:25:24;16.20;57.60
28087;DHT22;15392;48.912;8.380;2022-11-04T01:27:50;16.20;57.50
28087;DHT22;15392;48.912;8.380;2022-11-04T01:30:16;16.20;57.40
28087;DHT22;15392;48.912;8.380;2022-11-04T01:32:42;16.20;57.40
28087;DHT22;15392;48.912;8.380;2022-11-04T01:35:08;16.20;57.50
28087;DHT22;15392;48.912;8.380;2022-11-04T01:37:34;16.20;57.50
28087;DHT22;15392;48.912;8.380;2022-11-04T01:40:00;16.20;57.40
28087;DHT22;15392;48.912;8.380;2022-11-04T01:42:26;16.20;57.30
28087;DHT22;15392;48.912;8.380;2022-11-04T01:44:56;16.20;57.30
28087;DHT22;15392;48.912;8.380;2022-11-04T01:49:59;16.20;57.20
28087;DHT22;15392;48.912;8.380;2022-11-04T01:52:52;16.10;57.10
28087;DHT22;15392;48.912;8.380;2022-11-04T01:55:23;16.10;57.10
28087;DHT22;15392;48.912;8.380;2022-11-04T01:58:13;16.10;57.30
28087;DHT22;15392;48.912;8.380;2022-11-04T02:00:41;16.10;57.30
28087;DHT22;15392;48.912;8.380;2022-11-04T02:03:11;16.10;57.30
28087;DHT22;15392;48.912;8.380;2022-11-04T02:05:53;16.10;57.20
28087;DHT22;15392;48.912;8.380;2022-11-04T02:08:19;16.10;57.10
28087;DHT22;15392;48.912;8.380;2022-11-04T02:11:00;16.10;57.10
28087;DHT22;15392;48.912;8.380;2022-11-04T02:13:28;16.10;57.20
28087;DHT22;15392;48.912;8.380;2022-11-04T02:25:23;16.00;57.20
28087;DHT22;15392;48.912;8.380;2022-11-04T02:34:17;16.00;57.30
28087;DHT22;15392;48.912;8.380;2022-11-04T02:42:44;16.00;57.20
28087;DHT22;15392;48.912;8.380;2022-11-04T02:45:25;15.90;57.10
28087;DHT22;15392;48.912;8.380;2022-11-04T02:48:16;15.90;57.00
28087;DHT22;15392;48.912;8.380;2022-11-04T02:50:52;15.90;56.80
28087;DHT22;15392;48.912;8.380;2022-11-04T02:53:42;15.90;56.90
28087;DHT22;15392;48.912;8.380;2022-11-04T02:56:13;15.90;56.80
28087;DHT22;15392;48.912;8.380;2022-11-04T02:58:45;15.90;56.80
28087;DHT22;15392;48.912;8.380;2022-11-04T03:01:16;15.90;57.40
28087;DHT22;15392;48.912;8.380;2022-11-04T03:03:50;15.90;56.90
28087;DHT22;15392;48.912;8.380;2022-11-04T03:06:26;15.90;57.10
28087;DHT22;15392;48.912;8.380;2022-11-04T03:08:53;15.90;57.00
28087;DHT22;15392;48.912;8.380;2022-11-04T03:11:24;15.90;57.00
28087;DHT22;15392;48.912;8.380;2022-11-04T03:14:05;15.90;57.40
28087;DHT22;15392;48.912;8.380;2022-11-04T03:16:43;15.80;57.10
28087;DHT22;15392;48.912;8.380;2022-11-04T03:19:18;15.90;57.40
28087;DHT22;15392;48.912;8.380;2022-11-04T03:21:58;15.80;57.20
28087;DHT22;15392;48.912;8.380;2022-11-04T03:24:27;15.80;57.30
28087;DHT22;15392;48.912;8.380;2022-11-04T03:27:00;15.90;57.50
28087;DHT22;15392;48.912;8.380;2022-11-04T03:29:45;15.90;57.70
28087;DHT22;15392;48.912;8.380;2022-11-04T03:35:08;15.80;57.70
28087;DHT22;15392;48.912;8.380;2022-11-04T03:37:35;15.80;57.60
28087;DHT22;15392;48.912;8.380;2022-11-04T03:40:01;15.80;57.50
28087;DHT22;15392;48.912;8.380;2022-11-04T03:42:30;15.80;57.50
28087;DHT22;15392;48.912;8.380;2022-11-04T03:44:57;15.80;57.50
28087;DHT22;15392;48.912;8.380;2022-11-04T03:47:25;15.80;57.40
28087;DHT22;15392;48.912;8.380;2022-11-04T03:50:12;15.80;57.60
28087;DHT22;15392;48.912;8.380;2022-11-04T03:52:44;15.80;57.70
28087;DHT22;15392;48.912;8.380;2022-11-04T03:55:11;15.80;57.50
28087;DHT22;15392;48.912;8.380;2022-11-04T03:57:49;15.80;57.50
28087;DHT22;15392;48.912;8.380;2022-11-04T04:00:30;15.80;57.70
28087;DHT22;15392;48.912;8.380;2022-11-04T04:03:11;15.80;57.60
28087;DHT22;15392;48.912;8.380;2022-11-04T04:05:58;15.80;57.50
28087;DHT22;15392;48.912;8.380;2022-11-04T04:08:42;15.80;57.20
28087;DHT22;15392;48.912;8.380;2022-11-04T04:11:44;15.70;57.00
28087;DHT22;15392;48.912;8.380;2022-11-04T04:14:33;15.70;57.40
28087;DHT22;15392;48.912;8.380;2022-11-04T04:17:26;15.70;57.00
28087;DHT22;15392;48.912;8.380;2022-11-04T04:20:00;15.70;56.80
28087;DHT22;15392;48.912;8.380;2022-11-04T04:23:02;15.70;56.60
28087;DHT22;15392;48.912;8.380;2022-11-04T04:25:55;15.70;56.60
28087;DHT22;15392;48.912;8.380;2022-11-04T04:28:42;15.60;56.60
28087;DHT22;15392;48.912;8.380;2022-11-04T04:31:10;15.60;57.20
28087;DHT22;15392;48.912;8.380;2022-11-04T04:33:37;15.60;56.60
28087;DHT22;15392;48.912;8.380;2022-11-04T04:36:05;15.50;56.60
28087;DHT22;15392;48.912;8.380;2022-11-04T04:38:34;15.60;56.70
28087;DHT22;15392;48.912;8.380;2022-11-04T04:41:28;15.50;56.60
28087;DHT22;15392;48.912;8.380;2022-11-04T04:44:27;15.50;56.50
28087;DHT22;15392;48.912;8.380;2022-11-04T04:47:15;15.50;56.40
28087;DHT22;15392;48.912;8.380;2022-11-04T04:49:57;15.50;56.40
28087;DHT22;15392;48.912;8.380;2022-11-04T04:52:26;15.50;56.20
28087;DHT22;15392;48.912;8.380;2022-11-04T04:54:54;15.50;56.40
28087;DHT22;15392;48.912;8.380;2022-11-04T04:57:20;15.50;56.30
28087;DHT22;15392;48.912;8.380;2022-11-04T04:59:46;15.40;56.20
28087;DHT22;15392;48.912;8.380;2022-11-04T05:02:14;15.40;56.10
28087;DHT22;15392;48.912;8.380;2022-11-04T05:04:40;15.40;56.00
28087;DHT22;15392;48.912;8.380;2022-11-04T05:07:06;15.40;56.00
28087;DHT22;15392;48.912;8.380;2022-11-04T05:09:34;15.40;55.80
28087;DHT22;15392;48.912;8.380;2022-11-04T05:12:00;15.40;55.80
28087;DHT22;15392;48.912;8.380;2022-11-04T05:14:26;15.40;55.80
28087;DHT22;15392;48.912;8.380;2022-11-04T05:16:52;15.40;55.70
28087;DHT22;15392;48.912;8.380;2022-11-04T05:19:17;15.40;55.80
28087;DHT22;15392;48.912;8.380;2022-11-04T05:21:43;15.40;55.80
28087;DHT22;15392;48.912;8.380;2022-11-04T05:24:09;15.40;56.00
28087;DHT22;15392;48.912;8.380;2022-11-04T05:26:35;15.40;56.10
28087;DHT22;15392;48.912;8.380;2022-11-04T05:29:01;15.40;56.10
28087;DHT22;15392;48.912;8.380;2022-11-04T05:31:27;15.40;56.20
28087;DHT22;15392;48.912;8.380;2022-11-04T05:33:54;15.40;56.20
28087;DHT22;15392;48.912;8.380;2022-11-04T05:36:21;15.40;56.10
28087;DHT22;15392;48.912;8.380;2022-11-04T05:38:51;15.40;56.00
28087;DHT22;15392;48.912;8.380;2022-11-04T05:41:20;15.40;56.00
28087;DHT22;15392;48.912;8.380;2022-11-04T05:43:57;15.40;56.00
28087;DHT22;15392;48.912;8.380;2022-11-04T05:46:24;15.40;56.00
28087;DHT22;15392;48.912;8.380;2022-11-04T05:48:50;15.40;56.10
28087;DHT22;15392;48.912;8.380;2022-11-04T05:51:20;15.40;56.30
28087;DHT22;15392;48.912;8.380;2022-11-04T05:53:48;15.40;56.50
28087;DHT22;15392;48.912;8.380;2022-11-04T05:56:14;15.40;56.30
28087;DHT22;15392;48.912;8.380;2022-11-04T05:58:40;15.40;56.10
28087;DHT22;15392;48.912;8.380;2022-11-04T06:01:28;15.40;56.10
28087;DHT22;15392;48.912;8.380;2022-11-04T06:03:59;15.40;55.80
28087;DHT22;15392;48.912;8.380;2022-11-04T06:06:28;15.40;55.90
28087;DHT22;15392;48.912;8.380;2022-11-04T06:08:56;15.40;55.90
28087;DHT22;15392;48.912;8.380;2022-11-04T06:11:23;15.40;56.00
28087;DHT22;15392;48.912;8.380;2022-11-04T06:13:52;15.40;55.90
28087;DHT22;15392;48.912;8.380;2022-11-04T06:16:18;15.40;55.90
28087;DHT22;15392;48.912;8.380;2022-11-04T06:18:44;15.40;56.10
28087;DHT22;15392;48.912;8.380;2022-11-04T06:21:28;15.40;56.40
28087;DHT22;15392;48.912;8.380;2022-11-04T06:23:55;15.40;56.60
28087;DHT22;15392;48.912;8.380;2022-11-04T06:26:24;15.40;56.40
28087;DHT22;15392;48.912;8.380;2022-11-04T06:28:50;15.40;56.30
28087;DHT22;15392;48.912;8.380;2022-11-04T06:31:17;15.30;56.20
28087;DHT22;15392;48.912;8.380;2022-11-04T06:33:43;15.30;56.10
28087;DHT22;15392;48.912;8.380;2022-11-04T06:36:13;15.30;56.10
28087;DHT22;15392;48.912;8.380;2022-11-04T06:38:39;15.30;56.10
28087;DHT22;15392;48.912;8.380;2022-11-04T06:41:08;15.30;56.00
28087;DHT22;15392;48.912;8.380;2022-11-04T06:43:36;15.30;56.10
28087;DHT22;15392;48.912;8.380;2022-11-04T06:46:03;15.30;56.10
28087;DHT22;15392;48.912;8.380;2022-11-04T06:48:29;15.30;56.20
28087;DHT22;15392;48.912;8.380;2022-11-04T06:50:57;15.30;56.20
28087;DHT22;15392;48.912;8.380;2022-11-04T06:53:24;15.30;56.20
28087;DHT22;15392;48.912;8.380;2022-11-04T06:55:51;15.30;56.10
28087;DHT22;15392;48.912;8.380;2022-11-04T06:58:17;15.30;56.20
28087;DHT22;15392;48.912;8.380;2022-11-04T07:00:43;15.40;56.30
28087;DHT22;15392;48.912;8.380;2022-11-04T07:03:15;15.30;56.10
28087;DHT22;15392;48.912;8.380;2022-11-04T07:05:41;15.40;55.90
28087;DHT22;15392;48.912;8.380;2022-11-04T07:08:06;15.40;55.90
28087;DHT22;15392;48.912;8.380;2022-11-04T07:10:32;15.40;55.80
28087;DHT22;15392;48.912;8.380;2022-11-04T07:12:58;15.40;55.60
28087;DHT22;15392;48.912;8.380;2022-11-04T07:15:24;15.40;55.50
28087;DHT22;15392;48.912;8.380;2022-11-04T07:17:50;15.40;55.60
28087;DHT22;15392;48.912;8.380;2022-11-04T07:20:15;15.40;55.60
28087;DHT22;15392;48.912;8.380;2022-11-04T07:22:41;15.50;55.70
28087;DHT22;15392;48.912;8.380;2022-11-04T07:25:07;15.50;55.70
28087;DHT22;15392;48.912;8.380;2022-11-04T07:27:33;15.50;55.80
28087;DHT22;15392;48.912;8.380;2022-11-04T07:29:59;15.50;55.90
28087;DHT22;15392;48.912;8.380;2022-11-04T07:32:25;15.50;55.90
28087;DHT22;15392;48.912;8.380;2022-11-04T07:34:51;15.60;56.00
28087;DHT22;15392;48.912;8.380;2022-11-04T07:37:16;15.60;56.00
28087;DHT22;15392;48.912;8.380;2022-11-04T07:39:42;15.60;56.00
28087;DHT22;15392;48.912;8.380;2022-11-04T07:42:08;15.60;56.00
28087;DHT22;15392;48.912;8.380;2022-11-04T07:44:34;15.70;56.20
28087;DHT22;15392;48.912;8.380;2022-11-04T07:47:00;15.70;56.90
28087;DHT22;15392;48.912;8.380;2022-11-04T07:49:26;15.70;56.30
28087;DHT22;15392;48.912;8.380;2022-11-04T07:51:51;15.80;56.30
28087;DHT22;15392;48.912;8.380;2022-11-04T07:54:17;15.80;56.40
28087;DHT22;15392;48.912;8.380;2022-11-04T07:56:43;15.80;56.30
28087;DHT22;15392;48.912;8.380;2022-11-04T07:59:09;15.80;56.20
28087;DHT22;15392;48.912;8.380;2022-11-04T08:01:35;15.80;56.10
28087;DHT22;15392;48.912;8.380;2022-11-04T08:04:01;15.80;56.20
28087;DHT22;15392;48.912;8.380;2022-11-04T08:06:29;15.80;56.20
28087;DHT22;15392;48.912;8.380;2022-11-04T08:08:57;15.90;56.20
28087;DHT22;15392;48.912;8.380;2022-11-04T08:11:24;15.90;56.30
28087;DHT22;15392;48.912;8.380;2022-11-04T08:13:54;15.90;56.40
28087;DHT22;15392;48.912;8.380;2022-11-04T08:16:22;15.90;56.20
28087;DHT22;15392;48.912;8.380;2022-11-04T08:18:50;15.90;56.00
28087;DHT22;15392;48.912;8.380;2022-11-04T08:21:20;16.00;56.00
28087;DHT22;15392;48.912;8.380;2022-11-04T08:23:46;16.00;56.00
28087;DHT22;15392;48.912;8.380;2022-11-04T08:26:17;16.00;56.10
28087;DHT22;15392;48.912;8.380;2022-11-04T08:28:44;16.10;56.00
28087;DHT22;15392;48.912;8.380;2022-11-04T08:31:14;16.10;56.00
28087;DHT22;15392;48.912;8.380;2022-11-04T08:33:41;16.20;56.00
28087;DHT22;15392;48.912;8.380;2022-11-04T08:36:14;16.20;56.00
28087;DHT22;15392;48.912;8.380;2022-11-04T08:38:42;16.40;56.20
28087;DHT22;15392;48.912;8.380;2022-11-04T08:41:09;16.40;56.20
28087;DHT22;15392;48.912;8.380;2022-11-04T08:43:35;16.50;56.30
28087;DHT22;15392;48.912;8.380;2022-11-04T08:46:04;16.60;56.30
28087;DHT22;15392;48.912;8.380;2022-11-04T08:48:33;16.70;56.30
28087;DHT22;15392;48.912;8.380;2022-11-04T08:50:59;16.80;56.30
28087;DHT22;15392;48.912;8.380;2022-11-04T08:53:25;17.00;56.40
28087;DHT22;15392;48.912;8.380;2022-11-04T08:55:51;17.10;56.30
28087;DHT22;15392;48.912;8.380;2022-11-04T08:58:17;17.30;56.30
28087;DHT22;15392;48.912;8.380;2022-11-04T09:00:43;17.40;56.10
28087;DHT22;15392;48.912;8.380;2022-11-04T09:03:09;17.60;55.90
28087;DHT22;15392;48.912;8.380;2022-11-04T09:05:39;17.80;55.80
28087;DHT22;15392;48.912;8.380;2022-11-04T09:08:13;17.90;55.50
28087;DHT22;15392;48.912;8.380;2022-11-04T09:10:45;17.90;55.20
28087;DHT22;15392;48.912;8.380;2022-11-04T09:13:13;18.10;54.80
28087;DHT22;15392;48.912;8.380;2022-11-04T09:15:41;18.10;54.60
28087;DHT22;15392;48.912;8.380;2022-11-04T09:18:07;18.20;54.70
28087;DHT22;15392;48.912;8.380;2022-11-04T09:20:34;18.30;54.70
28087;DHT22;15392;48.912;8.380;2022-11-04T09:23:03;18.40;54.40
28087;DHT22;15392;48.912;8.380;2022-11-04T09:25:29;18.40;54.40
28087;DHT22;15392;48.912;8.380;2022-11-04T09:27:58;18.40;54.30
28087;DHT22;15392;48.912;8.380;2022-11-04T09:30:24;18.50;54.30
28087;DHT22;15392;48.912;8.380;2022-11-04T09:32:50;18.50;54.30
28087;DHT22;15392;48.912;8.380;2022-11-04T09:35:16;18.60;54.30
28087;DHT22;15392;48.912;8.380;2022-11-04T09:37:43;18.70;54.40
28087;DHT22;15392;48.912;8.380;2022-11-04T09:40:14;18.90;54.60
28087;DHT22;15392;48.912;8.380;2022-11-04T09:45:26;19.30;54.50
28087;DHT22;15392;48.912;8.380;2022-11-04T09:48:00;19.50;54.00
28087;DHT22;15392;48.912;8.380;2022-11-04T09:59:04;19.90;53.00
28087;DHT22;15392;48.912;8.380;2022-11-04T10:04:32;19.80;51.90
28087;DHT22;15392;48.912;8.380;2022-11-04T10:22:11;19.10;52.30
28087;DHT22;15392;48.912;8.380;2022-11-04T10:27:32;19.00;52.60
28087;DHT22;15392;48.912;8.380;2022-11-04T10:30:03;19.00;52.90
28087;DHT22;15392;48.912;8.380;2022-11-04T10:32:38;18.90;53.10
28087;DHT22;15392;48.912;8.380;2022-11-04T10:35:39;18.90;53.00
28087;DHT22;15392;48.912;8.380;2022-11-04T10:41:29;18.90;52.70
28087;DHT22;15392;48.912;8.380;2022-11-04T10:44:02;18.90;52.70
28087;DHT22;15392;48.912;8.380;2022-11-04T10:50:03;18.90;52.70
28087;DHT22;15392;48.912;8.380;2022-11-04T10:52:38;18.90;52.20
28087;DHT22;15392;48.912;8.380;2022-11-04T10:55:21;18.90;53.10
28087;DHT22;15392;48.912;8.380;2022-11-04T10:57:57;18.80;52.80
28087;DHT22;15392;48.912;8.380;2022-11-04T11:00:37;18.90;53.10
28087;DHT22;15392;48.912;8.380;2022-11-04T11:06:10;18.80;52.60
28087;DHT22;15392;48.912;8.380;2022-11-04T11:08:40;18.80;53.30
28087;DHT22;15392;48.912;8.380;2022-11-04T11:11:08;18.80;53.10
28087;DHT22;15392;48.912;8.380;2022-11-04T11:13:37;18.80;53.00
28087;DHT22;15392;48.912;8.380;2022-11-04T11:16:27;18.90;53.10
28087;DHT22;15392;48.912;8.380;2022-11-04T11:19:23;18.80;53.00
28087;DHT22;15392;48.912;8.380;2022-11-04T11:21:52;18.90;52.50
28087;DHT22;15392;48.912;8.380;2022-11-04T11:26:53;18.80;53.30
28087;DHT22;15392;48.912;8.380;2022-11-04T11:29:24;18.80;53.10
28087;DHT22;15392;48.912;8.380;2022-11-04T11:31:54;18.80;53.30
28087;DHT22;15392;48.912;8.380;2022-11-04T11:34:33;18.80;53.30
28087;DHT22;15392;48.912;8.380;2022-11-04T11:37:02;18.80;52.80
28087;DHT22;15392;48.912;8.380;2022-11-04T11:39:34;18.90;53.20
28087;DHT22;15392;48.912;8.380;2022-11-04T11:42:03;18.80;53.00
28087;DHT22;15392;48.912;8.380;2022-11-04T11:44:48;18.80;53.10
28087;DHT22;15392;48.912;8.380;2022-11-04T11:52:38;18.80;52.50
28087;DHT22;15392;48.912;8.380;2022-11-04T11:55:26;18.80;53.30
28087;DHT22;15392;48.912;8.380;2022-11-04T12:01:09;18.80;52.80
28087;DHT22;15392;48.912;8.380;2022-11-04T12:03:44;18.80;52.80
28087;DHT22;15392;48.912;8.380;2022-11-04T12:26:59;18.80;52.80
28087;DHT22;15392;48.912;8.380;2022-11-04T12:32:47;18.90;52.20
28087;DHT22;15392;48.912;8.380;2022-11-04T12:35:42;18.80;51.60
28087;DHT22;15392;48.912;8.380;2022-11-04T12:42:26;18.80;51.70
28087;DHT22;15392;48.912;8.380;2022-11-04T12:49:18;18.80;51.50
28087;DHT22;15392;48.912;8.380;2022-11-04T12:55:10;18.70;52.10
28087;DHT22;15392;48.912;8.380;2022-11-04T13:01:22;18.70;52.30
28087;DHT22;15392;48.912;8.380;2022-11-04T13:04:10;18.70;52.90
28087;DHT22;15392;48.912;8.380;2022-11-04T13:07:09;18.70;52.90
28087;DHT22;15392;48.912;8.380;2022-11-04T13:10:01;18.80;52.30
28087;DHT22;15392;48.912;8.380;2022-11-04T13:12:38;18.80;52.90
28087;DHT22;15392;48.912;8.380;2022-11-04T13:15:34;18.80;52.40
28087;DHT22;15392;48.912;8.380;2022-11-04T13:18:14;18.80;51.40
28087;DHT22;15392;48.912;8.380;2022-11-04T13:24:04;18.80;51.80
28087;DHT22;15392;48.912;8.380;2022-11-04T13:26:32;18.80;51.60
28087;DHT22;15392;48.912;8.380;2022-11-04T13:29:21;18.80;52.20
28087;DHT22;15392;48.912;8.380;2022-11-04T13:37:41;18.80;52.10
28087;DHT22;15392;48.912;8.380;2022-11-04T13:40:45;18.80;52.00
28087;DHT22;15392;48.912;8.380;2022-11-04T13:43:25;18.80;51.20
28087;DHT22;15392;48.912;8.380;2022-11-04T13:48:34;18.80;52.00
28087;DHT22;15392;48.912;8.380;2022-11-04T13:51:08;18.80;51.90
28087;DHT22;15392;48.912;8.380;2022-11-04T13:53:44;18.80;51.70
28087;DHT22;15392;48.912;8.380;2022-11-04T13:56:36;18.80;51.20
28087;DHT22;15392;48.912;8.380;2022-11-04T14:01:47;18.80;51.90
28087;DHT22;15392;48.912;8.380;2022-11-04T14:06:59;18.70;52.10
28087;DHT22;15392;48.912;8.380;2022-11-04T14:14:41;18.70;52.30
28087;DHT22;15392;48.912;8.380;2022-11-04T14:25:24;18.70;51.90
28087;DHT22;15392;48.912;8.380;2022-11-04T14:27:54;18.70;51.70
28087;DHT22;15392;48.912;8.380;2022-11-04T14:30:47;18.70;52.30
28087;DHT22;15392;48.912;8.380;2022-11-04T14:44:25;18.60;52.10
28087;DHT22;15392;48.912;8.380;2022-11-04T14:47:26;18.50;51.70
28087;DHT22;15392;48.912;8.380;2022-11-04T14:52:29;18.60;52.50
28087;DHT22;15392;48.912;8.380;2022-11-04T14:55:02;18.60;52.40
28087;DHT22;15392;48.912;8.380;2022-11-04T14:57:36;18.50;52.30
28087;DHT22;15392;48.912;8.380;2022-11-04T15:00:39;18.50;52.40
28087;DHT22;15392;48.912;8.380;2022-11-04T15:05:48;18.50;52.80
28087;DHT22;15392;48.912;8.380;2022-11-04T15:08:24;18.60;52.80
28087;DHT22;15392;48.912;8.380;2022-11-04T15:10:50;18.50;52.40
28087;DHT22;15392;48.912;8.380;2022-11-04T15:13:20;18.50;52.70
28087;DHT22;15392;48.912;8.380;2022-11-04T15:15:47;18.60;52.70
28087;DHT22;15392;48.912;8.380;2022-11-04T15:18:20;18.60;52.70
28087;DHT22;15392;48.912;8.380;2022-11-04T15:20:51;18.60;52.50
28087;DHT22;15392;48.912;8.380;2022-11-04T15:23:32;18.60;52.70
28087;DHT22;15392;48.912;8.380;2022-11-04T15:25:59;18.60;52.40
28087;DHT22;15392;48.912;8.380;2022-11-04T15:28:33;18.60;52.80
28087;DHT22;15392;48.912;8.380;2022-11-04T15:33:44;18.50;52.80
28087;DHT22;15392;48.912;8.380;2022-11-04T15:39:02;18.50;52.70
28087;DHT22;15392;48.912;8.380;2022-11-04T15:41:31;18.50;52.90
28087;DHT22;15392;48.912;8.380;2022-11-04T15:44:28;18.40;53.00
28087;DHT22;15392;48.912;8.380;2022-11-04T15:46:57;18.40;52.80
28087;DHT22;15392;48.912;8.380;2022-11-04T15:49:27;18.40;52.90
28087;DHT22;15392;48.912;8.380;2022-11-04T15:52:04;18.30;52.90
28087;DHT22;15392;48.912;8.380;2022-11-04T15:54:36;18.20;52.90
28087;DHT22;15392;48.912;8.380;2022-11-04T15:57:14;18.10;53.00
28087;DHT22;15392;48.912;8.380;2022-11-04T16:02:55;18.00;53.20
28087;DHT22;15392;48.912;8.380;2022-11-04T16:05:32;17.90;53.30
28087;DHT22;15392;48.912;8.380;2022-11-04T16:08:19;17.90;53.50
28087;DHT22;15392;48.912;8.380;2022-11-04T16:10:46;17.80;53.50
28087;DHT22;15392;48.912;8.380;2022-11-04T16:16:35;17.70;54.30
28087;DHT22;15392;48.912;8.380;2022-11-04T16:18:56;17.60;53.80
28087;DHT22;15392;48.912;8.380;2022-11-04T16:21:29;17.50;53.80
28087;DHT22;15392;48.912;8.380;2022-11-04T16:24:14;17.50;53.90
28087;DHT22;15392;48.912;8.380;2022-11-04T16:26:43;17.40;54.10
28087;DHT22;15392;48.912;8.380;2022-11-04T16:29:19;17.40;54.10
28087;DHT22;15392;48.912;8.380;2022-11-04T16:32:16;17.30;54.20
28087;DHT22;15392;48.912;8.380;2022-11-04T16:34:45;17.30;54.30
28087;DHT22;15392;48.912;8.380;2022-11-04T16:37:13;17.20;54.20
28087;DHT22;15392;48.912;8.380;2022-11-04T16:39:41;17.20;54.30
28087;DHT22;15392;48.912;8.380;2022-11-04T16:42:09;17.10;54.30
28087;DHT22;15392;48.912;8.380;2022-11-04T16:44:36;17.00;54.40
28087;DHT22;15392;48.912;8.380;2022-11-04T16:47:02;17.00;54.40
28087;DHT22;15392;48.912;8.380;2022-11-04T16:49:28;17.00;54.40
28087;DHT22;15392;48.912;8.380;2022-11-04T16:52:00;16.90;54.40
28087;DHT22;15392;48.912;8.380;2022-11-04T16:54:27;16.90;54.50
28087;DHT22;15392;48.912;8.380;2022-11-04T16:56:54;16.80;55.00
28087;DHT22;15392;48.912;8.380;2022-11-04T16:59:20;16.70;54.40
28087;DHT22;15392;48.912;8.380;2022-11-04T17:01:47;16.70;54.50
28087;DHT22;15392;48.912;8.380;2022-11-04T17:04:13;16.70;54.70
28087;DHT22;15392;48.912;8.380;2022-11-04T17:06:40;16.60;54.70
28087;DHT22;15392;48.912;8.380;2022-11-04T17:09:19;16.60;54.90
28087;DHT22;15392;48.912;8.380;2022-11-04T17:11:46;16.60;55.60
28087;DHT22;15392;48.912;8.380;2022-11-04T17:14:12;16.50;54.90
28087;DHT22;15392;48.912;8.380;2022-11-04T17:16:38;16.50;54.70
28087;DHT22;15392;48.912;8.380;2022-11-04T17:19:04;16.50;54.70
28087;DHT22;15392;48.912;8.380;2022-11-04T17:21:30;16.50;54.80
28087;DHT22;15392;48.912;8.380;2022-11-04T17:23:56;16.40;54.90
28087;DHT22;15392;48.912;8.380;2022-11-04T17:26:21;16.40;55.00
28087;DHT22;15392;48.912;8.380;2022-11-04T17:28:47;16.40;55.00
28087;DHT22;15392;48.912;8.380;2022-11-04T17:31:17;16.40;55.00
28087;DHT22;15392;48.912;8.380;2022-11-04T17:33:44;16.40;55.10
28087;DHT22;15392;48.912;8.380;2022-11-04T17:36:16;16.40;55.10
28087;DHT22;15392;48.912;8.380;2022-11-04T17:38:43;16.40;55.20
28087;DHT22;15392;48.912;8.380;2022-11-04T17:41:09;16.30;55.00
28087;DHT22;15392;48.912;8.380;2022-11-04T17:43:53;16.40;55.20
28087;DHT22;15392;48.912;8.380;2022-11-04T17:46:25;16.40;55.30
28087;DHT22;15392;48.912;8.380;2022-11-04T17:49:17;16.40;55.40
28087;DHT22;15392;48.912;8.380;2022-11-04T17:51:47;16.40;55.50
28087;DHT22;15392;48.912;8.380;2022-11-04T17:54:18;16.30;55.40
28087;DHT22;15392;48.912;8.380;2022-11-04T17:56:45;16.30;55.40
28087;DHT22;15392;48.912;8.380;2022-11-04T17:59:12;16.30;55.40
28087;DHT22;15392;48.912;8.380;2022-11-04T18:01:40;16.30;55.50
28087;DHT22;15392;48.912;8.380;2022-11-04T18:04:07;16.30;55.50
28087;DHT22;15392;48.912;8.380;2022-11-04T18:06:37;16.30;55.50
28087;DHT22;15392;48.912;8.380;2022-11-04T18:09:03;16.30;55.50
28087;DHT22;15392;48.912;8.380;2022-11-04T18:11:30;16.30;55.60
28087;DHT22;15392;48.912;8.380;2022-11-04T18:14:16;16.30;55.60
28087;DHT22;15392;48.912;8.380;2022-11-04T18:16:44;16.30;55.50
28087;DHT22;15392;48.912;8.380;2022-11-04T18:19:11;16.20;55.50
28087;DHT22;15392;48.912;8.380;2022-11-04T18:21:41;16.20;55.50
28087;DHT22;15392;48.912;8.380;2022-11-04T18:24:07;16.20;55.60
28087;DHT22;15392;48.912;8.380;2022-11-04T18:26:34;16.20;55.60
28087;DHT22;15392;48.912;8.380;2022-11-04T18:29:01;16.20;55.60
28087;DHT22;15392;48.912;8.380;2022-11-04T18:31:29;16.20;55.60
28087;DHT22;15392;48.912;8.380;2022-11-04T18:34:02;16.20;55.70
28087;DHT22;15392;48.912;8.380;2022-11-04T18:36:29;16.20;55.70
28087;DHT22;15392;48.912;8.380;2022-11-04T18:38:58;16.20;55.80
28087;DHT22;15392;48.912;8.380;2022-11-04T18:41:24;16.30;56.00
28087;DHT22;15392;48.912;8.380;2022-11-04T18:43:51;16.30;56.80
28087;DHT22;15392;48.912;8.380;2022-11-04T18:46:18;16.30;56.10
28087;DHT22;15392;48.912;8.380;2022-11-04T18:48:50;16.30;56.00
28087;DHT22;15392;48.912;8.380;2022-11-04T18:51:19;16.30;56.30
28087;DHT22;15392;48.912;8.380;2022-11-04T18:53:46;16.30;56.20
28087;DHT22;15392;48.912;8.380;2022-11-04T18:56:15;16.30;56.20
28087;DHT22;15392;48.912;8.380;2022-11-04T18:58:42;16.40;56.20
28087;DHT22;15392;48.912;8.380;2022-11-04T19:01:19;16.40;56.10